Poncha Springs, Colorado
Current Conditions -  °F | °C
As of 11:55 PM on Wednesday 26 Nov 2014 (Local Time) from KANK Reporting Station
Clear Clear  
Wind Chill: 34°   Ceiling: Unl
Heat Index: 43°   Visibility: 10mi
Dew Point: 21°   Wind: 22mph
Humidity: 42%   Direction: 240°WSW
Pressure: 30.47"   Gusts: 31mph
Location:  38.51°N, 106.08°W
Report Text: KANK 270655Z AUTO 24019G27KT 10SM CLR 06/M06 A3047 RMK AO1 T00621060
Loading
Personal Weather Stations






























Interactive Weather Map New forecast layout! Learn more

10-Day Weather Forecast

Advertisements
Track Severe Weather on mobile